Flinterborg — PHPH — position and weather

sailwx.info

Track history (hours):
 
Tides and Currents Weather Stations Pressure Air Temp Water Temp Dewpoint Dewpoint Depression Visibility Wind Speed Wind Dir Waves Ship Positions

Flinterborg

Last reported at 2016-Jul-22 22:33 UTC. Time now 2016-Jul-25 06:05 UTC.
Position N 37°52' E 015°51'.

Length 111 m; draft 3.9 m.

Type: Ship. MMSI: 245433000.

Date/timePositionNaut miles runAvg speedWind from/ knotsBaromVisibWave heightAir tempDewpointWater temp
2016-Jul-22 22:33N 37°52' E 015°51'1111.0
2016-Jul-22 21:32N 37°54' E 015°37'1111.6
2016-Jul-22 20:33N 38°05' E 015°34'1110.4
2016-Jul-22 19:30N 38°15' E 015°39'1010.4
2016-Jul-22 18:33N 38°22' E 015°30'1313.0
2016-Jul-22 17:33N 38°29' E 015°16'1312.9
2016-Jul-22 16:31N 38°36' E 015°02'1312.9
2016-Jul-22 15:33N 38°43' E 014°48'1211.6
2016-Jul-22 14:29N 38°50' E 014°35'2412.5
2016-Jul-22 12:33N 39°03' E 014°09'2512.6
2016-Jul-22 10:32N 39°17' E 013°42'1312.4
2016-Jul-22 09:30N 39°24' E 013°28'1611.7
2016-Jul-22 08:07N 39°33' E 013°10'712.2
2016-Jul-22 07:33N 39°36' E 013°03'3612.0
2016-Jul-22 04:33N 39°57' E 012°24'1212.0
2016-Jul-22 03:33N 40°03' E 012°10'23811.9
2016-Jul-21 07:33N 41°46' E 007°26'1312.3
2016-Jul-21 06:29N 41°51' E 007°10'3812.4
2016-Jul-21 03:27N 42°04' E 006°23'  
2016-Jul-15 16:21N 41°01' E 002°34'910.0
2016-Jul-15 15:30N 40°55' E 002°25'1010.3
2016-Jul-15 14:29N 40°46' E 002°17'1010.5
2016-Jul-15 13:33N 40°38' E 002°11'1010.3
2016-Jul-15 12:33N 40°29' E 002°03'1010.3
2016-Jul-15 11:33N 40°20' E 001°56'1010.3
2016-Jul-15 10:33N 40°12' E 001°49'1010.3
2016-Jul-15 09:33N 40°03' E 001°41'1110.6
2016-Jul-15 08:32N 39°56' E 001°32'400 9.8
2016-Jul-13 15:33N 35°57' W 005°16'4 3.5
2016-Jul-13 14:32N 35°54' W 005°18'0 0.0
2016-Jul-13 13:32N 35°54' W 005°18'0 0.0
2016-Jul-13 12:31N 35°54' W 005°18'0 0.0
2016-Jul-13 11:31N 35°54' W 005°18'1 0.9
2016-Jul-13 10:33N 35°54' W 005°19'0 0.2
2016-Jul-13 09:33N 35°55' W 005°19'3 3.4
2016-Jul-13 08:33N 35°57' W 005°22'  
Track history (hours):
 
Tides and Currents Weather Stations Pressure Air Temp Water Temp Dewpoint Dewpoint Depression Visibility Wind Speed Wind Dir Waves Ship Positions

Flinterborg

Last reported at 2016-Jul-22 22:33 UTC. Time now 2016-Jul-25 06:05 UTC.
Position N 37°52' E 015°51'.

Length 111 m; draft 3.9 m.

Type: Ship. MMSI: 245433000.

Date/timePositionNaut miles runAvg speedWind from/ knotsBaromVisibWave heightAir tempDewpointWater temp
2016-Jul-22 22:33N 37°52' E 015°51'1111.0
2016-Jul-22 21:32N 37°54' E 015°37'1111.6
2016-Jul-22 20:33N 38°05' E 015°34'1110.4
2016-Jul-22 19:30N 38°15' E 015°39'1010.4
2016-Jul-22 18:33N 38°22' E 015°30'1313.0
2016-Jul-22 17:33N 38°29' E 015°16'1312.9
2016-Jul-22 16:31N 38°36' E 015°02'1312.9
2016-Jul-22 15:33N 38°43' E 014°48'1211.6
2016-Jul-22 14:29N 38°50' E 014°35'2412.5
2016-Jul-22 12:33N 39°03' E 014°09'2512.6
2016-Jul-22 10:32N 39°17' E 013°42'1312.4
2016-Jul-22 09:30N 39°24' E 013°28'1611.7
2016-Jul-22 08:07N 39°33' E 013°10'712.2
2016-Jul-22 07:33N 39°36' E 013°03'3612.0
2016-Jul-22 04:33N 39°57' E 012°24'1212.0
2016-Jul-22 03:33N 40°03' E 012°10'23811.9
2016-Jul-21 07:33N 41°46' E 007°26'1312.3
2016-Jul-21 06:29N 41°51' E 007°10'3812.4
2016-Jul-21 03:27N 42°04' E 006°23'  
2016-Jul-15 16:21N 41°01' E 002°34'910.0
2016-Jul-15 15:30N 40°55' E 002°25'1010.3
2016-Jul-15 14:29N 40°46' E 002°17'1010.5
2016-Jul-15 13:33N 40°38' E 002°11'1010.3
2016-Jul-15 12:33N 40°29' E 002°03'1010.3
2016-Jul-15 11:33N 40°20' E 001°56'1010.3
2016-Jul-15 10:33N 40°12' E 001°49'1010.3
2016-Jul-15 09:33N 40°03' E 001°41'1110.6
2016-Jul-15 08:32N 39°56' E 001°32'400 9.8
2016-Jul-13 15:33N 35°57' W 005°16'4 3.5
2016-Jul-13 14:32N 35°54' W 005°18'0 0.0
2016-Jul-13 13:32N 35°54' W 005°18'0 0.0
2016-Jul-13 12:31N 35°54' W 005°18'0 0.0
2016-Jul-13 11:31N 35°54' W 005°18'1 0.9
2016-Jul-13 10:33N 35°54' W 005°19'0 0.2
2016-Jul-13 09:33N 35°55' W 005°19'3 3.4
2016-Jul-13 08:33N 35°57' W 005°22'  

Dump ship's entire track history